Time;durP1;ratioP1;P1;durP2;ratioP2;P2;SDS_P1;SDS_P2;PMS_P1;PMS_P2;Temp;Humidity;BMP_temperature;BMP_pressure;BME280_temperature;BME280_humidity;BME280_pressure;Samples;Min_cycle;Max_cycle;Signal;HPM_P1;HPM_P2
2022/11/12 00:01:48;;;;;;;20.05;7.20;;;;;;;4.99;100.00;102913.84;6223035;28;20050;-73
2022/11/12 00:04:50;;;;;;;18.08;7.15;;;;;;;4.96;100.00;102901.69;6222364;28;20410;-73
2022/11/12 00:07:52;;;;;;;16.92;7.72;;;;;;;4.98;100.00;102914.72;6223189;28;20046;-73
2022/11/12 00:10:53;;;;;;;17.35;6.53;;;;;;;4.97;100.00;102905.16;6222422;28;20078;-74
2022/11/12 00:13:55;;;;;;;18.23;6.78;;;;;;;4.95;100.00;102907.78;6222667;28;20057;-74
2022/11/12 00:16:56;;;;;;;18.33;6.60;;;;;;;4.91;100.00;102908.63;6222678;28;20293;-73
2022/11/12 00:19:59;;;;;;;20.80;6.20;;;;;;;4.89;100.00;102907.72;6222663;28;20057;-73
2022/11/12 00:23:00;;;;;;;14.77;5.63;;;;;;;4.88;100.00;102905.13;6222653;28;20129;-72
2022/11/12 00:26:02;;;;;;;12.68;4.60;;;;;;;4.86;100.00;102910.34;6222593;28;20065;-73
2022/11/12 00:29:03;;;;;;;11.95;4.18;;;;;;;4.82;100.00;102905.97;6222551;28;20068;-73
2022/11/12 00:32:05;;;;;;;9.38;3.83;;;;;;;4.78;100.00;102904.19;6222337;28;20050;-74
2022/11/12 00:35:09;;;;;;;13.82;3.22;;;;;;;4.76;100.00;102908.53;6222106;28;20513;-73
2022/11/12 00:38:11;;;;;;;12.40;4.00;;;;;;;4.77;100.00;102907.69;6222375;28;20042;-73
2022/11/12 00:41:12;;;;;;;9.55;3.05;;;;;;;4.76;100.00;102904.19;6222488;28;20532;-74
2022/11/12 00:44:14;;;;;;;10.98;3.85;;;;;;;4.74;100.00;102905.03;6221812;28;20065;-74
2022/11/12 00:47:15;;;;;;;8.30;3.05;;;;;;;4.68;100.00;102900.69;6209307;23;20042;-72
2022/11/12 00:50:18;;;;;;;5.22;2.38;;;;;;;4.70;100.00;102906.75;6197893;28;20053;-72
2022/11/12 00:53:20;;;;;;;6.10;2.30;;;;;;;4.69;100.00;102911.97;6197959;28;20046;-71
2022/11/12 00:56:21;;;;;;;12.32;3.75;;;;;;;4.69;100.00;102919.78;6197294;28;20414;-72
2022/11/12 00:59:22;;;;;;;5.07;2.55;;;;;;;4.65;100.00;102923.22;6197934;28;20050;-72
2022/11/12 01:02:24;;;;;;;9.90;2.72;;;;;;;4.61;100.00;102921.47;6197330;28;20046;-70
2022/11/12 01:05:27;;;;;;;8.57;2.50;;;;;;;4.61;100.00;102918.84;6197414;28;20050;-72
2022/11/12 01:08:28;;;;;;;5.80;2.28;;;;;;;4.61;100.00;102930.13;6197606;28;20046;-71
2022/11/12 01:11:30;;;;;;;5.85;2.03;;;;;;;4.58;100.00;102928.38;6197544;28;20552;-72
2022/11/12 01:14:32;;;;;;;4.65;2.40;;;;;;;4.57;100.00;102929.25;6197771;28;20058;-72
2022/11/12 01:17:34;;;;;;;8.40;3.10;;;;;;;4.58;100.00;102927.50;6200418;28;20053;-72
2022/11/12 01:20:38;;;;;;;5.65;2.65;;;;;;;4.54;100.00;102934.44;6202251;28;20490;-72
2022/11/12 01:23:42;;;;;;;6.53;2.45;;;;;;;4.50;100.00;102929.22;6202865;28;20057;-72
2022/11/12 01:26:43;;;;;;;3.03;1.90;;;;;;;4.46;100.00;102925.72;6202461;28;20054;-72
2022/11/12 01:29:44;;;;;;;4.85;2.30;;;;;;;4.43;100.00;102932.63;6202001;28;20077;-72
2022/11/12 01:32:47;;;;;;;3.90;1.88;;;;;;;4.45;100.00;102929.19;6202384;28;20046;-72
2022/11/12 01:35:50;;;;;;;4.22;2.05;;;;;;;4.40;100.00;102933.44;6201729;28;20053;-72
2022/11/12 01:38:52;;;;;;;5.05;2.30;;;;;;;4.35;100.00;102929.94;6202382;28;20049;-72
2022/11/12 01:41:54;;;;;;;4.25;2.22;;;;;;;4.37;100.00;102925.63;6201770;28;20077;-72
2022/11/12 01:44:56;;;;;;;4.38;2.58;;;;;;;4.39;100.00;102930.84;6201750;28;20046;-72
2022/11/12 01:47:57;;;;;;;4.15;1.67;;;;;;;4.38;100.00;102936.91;6201823;28;20050;-72
2022/11/12 01:51:03;;;;;;;5.50;1.98;;;;;;;4.28;100.00;102941.19;6202034;28;20054;-72
2022/11/12 01:54:09;;;;;;;5.35;2.17;;;;;;;4.25;100.00;102933.34;6201701;28;20506;-72
2022/11/12 01:57:12;;;;;;;5.93;2.13;;;;;;;4.20;100.00;102935.03;6201900;28;20046;-72
2022/11/12 02:00:15;;;;;;;4.13;2.35;;;;;;;4.14;100.00;102943.69;6201257;28;20065;-71
2022/11/12 02:03:21;;;;;;;3.45;2.08;;;;;;;4.11;100.00;102943.63;6201750;28;20050;-71
2022/11/12 02:06:24;;;;;;;3.88;2.13;;;;;;;4.06;100.00;102942.72;6201080;28;20414;-72
2022/11/12 02:09:26;;;;;;;3.55;1.73;;;;;;;4.01;100.00;102936.63;6201622;28;20048;-71
2022/11/12 02:15:47;;;;;;;2.95;2.10;;;;;;;3.94;100.00;102943.47;6200950;28;20055;-72
2022/11/12 02:18:48;;;;;;;5.10;2.10;;;;;;;3.94;100.00;102937.41;6201338;28;20047;-71
2022/11/12 02:21:51;;;;;;;2.30;1.75;;;;;;;3.93;100.00;102927.84;6201075;28;20050;-72
2022/11/12 02:24:53;;;;;;;7.43;2.72;;;;;;;3.89;100.00;102933.88;6200924;28;20057;-72
2022/11/12 02:27:56;;;;;;;4.55;2.38;;;;;;;3.87;100.00;102930.41;6199926;28;20061;-72
2022/11/12 02:30:57;;;;;;;4.47;1.83;;;;;;;3.84;100.00;102928.66;6200728;28;20494;-72
2022/11/12 02:33:59;;;;;;;5.82;2.15;;;;;;;3.83;100.00;102929.50;6200536;28;20057;-71
2022/11/12 02:37:01;;;;;;;3.80;2.28;;;;;;;3.85;100.00;102939.91;6200933;28;20050;-72
2022/11/12 02:40:04;;;;;;;3.05;1.73;;;;;;;3.85;100.00;102942.50;6200442;28;20417;-71
2022/11/12 02:43:05;;;;;;;6.03;2.58;;;;;;;3.81;100.00;102942.50;6200788;28;20050;-71
2022/11/12 02:46:07;;;;;;;3.20;1.98;;;;;;;3.83;100.00;102946.84;6200131;28;20050;-72
2022/11/12 02:49:08;;;;;;;5.25;2.40;;;;;;;3.81;100.00;102944.22;6200764;28;20051;-72
2022/11/12 02:52:11;;;;;;;6.25;2.58;;;;;;;3.79;100.00;102938.13;6200234;28;20046;-72
2022/11/12 02:55:13;;;;;;;11.18;2.85;;;;;;;3.79;100.00;102939.00;6200012;28;20046;-72
2022/11/12 02:58:14;;;;;;;6.70;2.72;;;;;;;3.77;100.00;102930.31;6200589;28;20046;-72
2022/11/12 03:01:15;;;;;;;6.72;2.55;;;;;;;3.72;100.00;102928.50;6199916;28;20054;-72
2022/11/12 03:04:17;;;;;;;4.53;2.13;;;;;;;3.69;100.00;102934.56;6198233;28;20117;-72
2022/11/12 03:07:20;;;;;;;3.70;2.03;;;;;;;3.66;100.00;102938.84;6200344;28;20069;-72
2022/11/12 03:10:21;;;;;;;4.85;1.40;;;;;;;3.65;100.00;102944.91;6199723;28;20519;-72
2022/11/12 03:13:22;;;;;;;3.92;2.10;;;;;;;3.63;100.00;102946.63;6200333;28;20046;-71
2022/11/12 03:16:24;;;;;;;4.50;2.08;;;;;;;3.61;100.00;102946.59;6199526;28;20065;-72
2022/11/12 03:19:25;;;;;;;5.65;2.10;;;;;;;3.57;100.00;102937.03;6200129;28;20517;-72
2022/11/12 03:22:28;;;;;;;6.85;1.88;;;;;;;3.59;100.00;102948.34;6199574;28;20054;-72
2022/11/12 03:25:30;;;;;;;4.28;2.05;;;;;;;3.51;100.00;102939.56;6199563;28;20057;-71
2022/11/12 03:28:31;;;;;;;7.10;2.50;;;;;;;3.49;100.00;102933.47;6199635;28;20046;-72
2022/11/12 03:31:34;;;;;;;3.05;1.85;;;;;;;3.50;100.00;102932.63;6199523;28;20042;-71
2022/11/12 03:34:35;;;;;;;2.53;1.40;;;;;;;3.49;100.00;102936.06;6199241;28;20062;-72
2022/11/12 03:37:38;;;;;;;2.25;1.50;;;;;;;3.45;100.00;102942.06;6199667;28;20046;-71
2022/11/12 03:40:39;;;;;;;2.88;1.70;;;;;;;3.43;100.00;102934.28;6198822;28;20058;-72
2022/11/12 03:43:41;;;;;;;3.42;1.88;;;;;;;3.38;100.00;102929.88;6198951;28;20051;-69
2022/11/12 03:46:42;;;;;;;2.78;1.73;;;;;;;3.38;100.00;102937.69;6199112;28;20433;-72
2022/11/12 03:49:44;;;;;;;4.18;1.60;;;;;;;3.38;100.00;102925.56;6198889;28;20046;-70
2022/11/12 03:52:48;;;;;;;2.30;1.50;;;;;;;3.39;100.00;102924.69;6199355;28;20190;-72
2022/11/12 03:55:49;;;;;;;2.17;1.35;;;;;;;3.38;100.00;102932.50;6198742;28;20141;-72
2022/11/12 03:58:50;;;;;;;3.28;1.60;;;;;;;3.37;100.00;102931.63;6199148;28;20058;-72
2022/11/12 04:01:52;;;;;;;2.90;1.65;;;;;;;3.38;100.00;102922.97;6198692;28;20053;-72
2022/11/12 04:08:38;;;;;;;3.30;1.55;;;;;;;3.36;100.00;102924.69;6198778;28;20062;-71
2022/11/12 04:11:39;;;;;;;2.60;1.60;;;;;;;3.37;100.00;102922.94;6198612;28;20560;-72
2022/11/12 04:14:40;;;;;;;3.22;1.70;;;;;;;3.36;100.00;102923.78;6198226;28;20046;-71
2022/11/12 04:27:43;;;;;;;3.40;1.60;;;;;;;3.24;100.00;102924.53;6198495;28;20077;-71
2022/11/12 04:30:44;;;;;;;1.80;1.20;;;;;;;3.23;100.00;102925.38;6198034;28;20047;-71
2022/11/12 04:33:45;;;;;;;2.55;1.63;;;;;;;3.20;100.00;102922.75;6197881;28;20058;-72
2022/11/12 04:36:46;;;;;;;4.05;1.63;;;;;;;3.21;100.00;102925.34;6198258;28;20525;-72
2022/11/12 04:39:49;;;;;;;2.72;1.48;;;;;;;3.18;100.00;102922.75;6197811;28;20046;-71
2022/11/12 04:46:10;;;;;;;6.90;1.92;;;;;;;3.14;100.00;102920.94;6197595;28;20051;-72
2022/11/12 04:49:11;;;;;;;4.57;1.95;;;;;;;3.14;100.00;102926.16;6198040;28;20050;-71
2022/11/12 04:52:13;;;;;;;3.60;1.60;;;;;;;3.10;100.00;102936.47;6196917;28;20547;-72
2022/11/12 04:55:16;;;;;;;2.63;1.42;;;;;;;3.09;100.00;102932.09;6197669;28;20065;-72
2022/11/12 04:58:17;;;;;;;4.20;1.75;;;;;;;3.05;100.00;102919.09;6197773;28;20054;-71
2022/11/12 05:01:19;;;;;;;3.53;1.90;;;;;;;3.04;100.00;102919.06;6197488;28;20077;-72
2022/11/12 05:04:21;;;;;;;3.53;1.88;;;;;;;3.04;100.00;102921.66;6197367;28;20050;-72
2022/11/12 05:07:23;;;;;;;2.90;1.67;;;;;;;3.02;100.00;102924.25;6197925;28;20082;-72
2022/11/12 05:10:25;;;;;;;1.65;1.27;;;;;;;3.01;100.00;102917.31;6197276;28;20418;-71
2022/11/12 05:13:28;;;;;;;6.35;1.98;;;;;;;3.00;100.00;102914.72;6197598;28;20057;-72
2022/11/12 05:16:29;;;;;;;3.90;1.92;;;;;;;2.99;100.00;102921.59;6197289;28;20061;-72
2022/11/12 05:19:31;;;;;;;2.67;1.30;;;;;;;2.96;100.00;102925.91;6197594;28;20053;-72
2022/11/12 05:22:32;;;;;;;2.53;1.48;;;;;;;2.93;100.00;102915.47;6197426;28;20505;-71
2022/11/12 05:25:35;;;;;;;2.72;1.67;;;;;;;2.89;100.00;102916.28;6197136;28;20069;-72
2022/11/12 05:28:37;;;;;;;5.55;1.63;;;;;;;2.87;100.00;102920.59;6197516;28;20047;-71
2022/11/12 05:31:38;;;;;;;2.25;1.35;;;;;;;2.86;100.00;102916.22;6197263;28;20058;-70
2022/11/12 05:34:40;;;;;;;2.92;1.80;;;;;;;2.79;100.00;102910.09;6187002;28;20050;-72
2022/11/12 05:37:41;;;;;;;2.83;1.90;;;;;;;2.79;100.00;102910.97;6188663;28;20054;-71
2022/11/12 05:40:45;;;;;;;3.55;1.60;;;;;;;2.76;100.00;102915.22;6197546;28;20509;-71
2022/11/12 05:43:47;;;;;;;4.00;1.95;;;;;;;2.74;100.00;102907.44;6185061;28;20046;-71
2022/11/12 05:46:49;;;;;;;4.30;1.73;;;;;;;2.71;100.00;102912.56;6192464;28;20057;-72
2022/11/12 05:49:50;;;;;;;4.40;2.20;;;;;;;2.74;100.00;102916.94;6195036;28;20074;-72
2022/11/12 05:52:51;;;;;;;2.83;1.50;;;;;;;2.75;100.00;102916.97;6185036;28;20054;-71
2022/11/12 05:56:00;;;;;;;3.53;1.75;;;;;;;2.73;100.00;102918.69;6184563;28;20046;-72
2022/11/12 05:59:02;;;;;;;2.73;1.53;;;;;;;2.73;100.00;102923.88;6185032;28;20049;-72
2022/11/12 06:02:03;;;;;;;2.95;1.70;;;;;;;2.72;100.00;102918.63;6186892;28;20658;-72
2022/11/12 06:05:05;;;;;;;5.10;1.70;;;;;;;2.71;100.00;102927.28;6190279;28;20050;-72
2022/11/12 06:08:06;;;;;;;2.85;1.63;;;;;;;2.67;100.00;102928.94;6185502;28;20427;-71
2022/11/12 06:11:09;;;;;;;1.60;1.30;;;;;;;2.66;100.00;102922.03;6187396;28;20050;-71
2022/11/12 06:14:11;;;;;;;4.88;1.80;;;;;;;2.68;100.00;102922.94;6188060;28;20046;-72
2022/11/12 06:17:12;;;;;;;5.70;1.95;;;;;;;2.66;100.00;102927.22;6187233;28;20070;-72
2022/11/12 06:20:14;;;;;;;2.28;1.60;;;;;;;2.62;100.00;102927.16;6188309;28;20522;-71
2022/11/12 06:23:15;;;;;;;1.50;1.30;;;;;;;2.58;100.00;102928.81;6186805;28;20057;-72
2022/11/12 06:26:19;;;;;;;2.50;1.45;;;;;;;2.57;100.00;102934.88;6188192;28;20062;-71
2022/11/12 06:29:20;;;;;;;4.45;1.83;;;;;;;2.55;100.00;102933.97;6186579;28;20069;-72
2022/11/12 06:32:22;;;;;;;5.72;2.35;;;;;;;2.58;100.00;102940.94;6187997;28;20050;-72
2022/11/12 06:35:23;;;;;;;3.75;2.33;;;;;;;2.57;100.00;102934.88;6186340;28;20438;-71
2022/11/12 06:38:25;;;;;;;3.20;1.80;;;;;;;2.53;100.00;102927.88;6187826;28;20054;-71
2022/11/12 06:41:27;;;;;;;2.85;1.77;;;;;;;2.51;100.00;102945.16;6186797;28;20055;-72
2022/11/12 06:44:29;;;;;;;3.03;1.58;;;;;;;2.49;100.00;102949.44;6186788;28;20072;-71
2022/11/12 06:47:30;;;;;;;2.75;1.63;;;;;;;2.50;100.00;102939.09;6187488;28;20533;-72
2022/11/12 06:50:32;;;;;;;2.05;1.70;;;;;;;2.51;100.00;102938.25;6186241;28;20049;-71
2022/11/12 06:53:33;;;;;;;4.63;1.98;;;;;;;2.55;100.00;102946.97;6187781;28;20055;-71
2022/11/12 06:56:36;;;;;;;2.65;1.65;;;;;;;2.56;100.00;102947.84;6185679;28;20042;-72
2022/11/12 06:59:37;;;;;;;6.50;1.50;;;;;;;2.57;100.00;102950.44;6187802;28;20498;-71
2022/11/12 07:02:39;;;;;;;2.70;1.42;;;;;;;2.58;100.00;102957.38;6185392;28;20057;-72
2022/11/12 07:05:40;;;;;;;3.50;1.65;;;;;;;2.60;100.00;102949.63;6185066;28;20046;-72
2022/11/12 07:08:42;;;;;;;3.75;1.77;;;;;;;2.58;100.00;102952.19;6183360;28;20055;-71
2022/11/12 07:11:45;;;;;;;3.55;1.95;;;;;;;2.56;100.00;102953.03;6175665;28;20051;-71
2022/11/12 07:14:46;;;;;;;3.08;1.55;;;;;;;2.60;100.00;102957.41;6174948;28;20047;-71
2022/11/12 07:17:48;;;;;;;3.30;1.75;;;;;;;2.65;100.00;102954.03;6175743;28;20521;-71
2022/11/12 07:20:49;;;;;;;2.50;1.58;;;;;;;2.69;100.00;102954.97;6175922;28;20058;-73
2022/11/12 07:23:50;;;;;;;4.50;2.33;;;;;;;2.69;100.00;102961.00;6175789;28;20077;-73
2022/11/12 07:26:53;;;;;;;2.60;1.48;;;;;;;2.70;100.00;102959.28;6175843;28;20051;-73
2022/11/12 07:29:55;;;;;;;4.15;1.83;;;;;;;2.69;100.00;102973.13;6175477;28;20058;-74
2022/11/12 07:32:57;;;;;;;2.80;1.48;;;;;;;2.69;100.00;102975.72;6183252;28;20053;-74
2022/11/12 07:36:00;;;;;;;5.03;2.33;;;;;;;2.66;100.00;102967.88;6199226;28;20399;-73
2022/11/12 07:39:02;;;;;;;8.23;1.75;;;;;;;2.69;100.00;102975.72;6199527;28;20046;-73
2022/11/12 07:42:05;;;;;;;3.67;1.75;;;;;;;2.74;100.00;102968.88;6199314;28;20049;-73
2022/11/12 07:45:07;;;;;;;3.17;1.55;;;;;;;2.77;100.00;102974.09;6198977;28;20054;-73
2022/11/12 07:48:08;;;;;;;2.55;1.65;;;;;;;2.78;100.00;102976.72;6199482;28;20399;-74
2022/11/12 07:51:12;;;;;;;3.35;1.67;;;;;;;2.82;100.00;102980.25;6198697;28;20050;-74
2022/11/12 07:54:14;;;;;;;4.00;1.70;;;;;;;2.85;100.00;102984.59;6198865;28;20104;-73
2022/11/12 07:57:17;;;;;;;5.13;2.35;;;;;;;2.88;100.00;102982.06;6198994;28;20062;-73
2022/11/12 08:00:18;;;;;;;4.97;2.13;;;;;;;2.93;100.00;102993.38;6199033;28;20053;-73
2022/11/12 08:03:20;;;;;;;3.53;1.65;;;;;;;2.95;100.00;102994.25;6198989;28;20502;-73
2022/11/12 08:06:22;;;;;;;7.13;2.90;;;;;;;2.99;100.00;102994.31;6198503;28;20046;-74
2022/11/12 08:09:24;;;;;;;4.80;2.03;;;;;;;3.02;100.00;102990.91;6198980;28;20144;-73
2022/11/12 08:12:26;;;;;;;3.25;1.77;;;;;;;3.05;100.00;102994.44;6198517;28;20050;-73
2022/11/12 08:15:28;;;;;;;4.32;2.00;;;;;;;3.11;100.00;102997.97;6198443;28;20060;-73
2022/11/12 08:18:30;;;;;;;6.10;2.80;;;;;;;3.12;100.00;102987.59;6198773;28;20644;-73
2022/11/12 08:21:32;;;;;;;3.22;1.75;;;;;;;3.18;100.00;102991.97;6198481;28;20099;-73
2022/11/12 08:24:33;;;;;;;6.65;2.47;;;;;;;3.20;100.00;102987.69;6198114;28;20557;-73
2022/11/12 08:27:36;;;;;;;3.60;1.73;;;;;;;3.23;100.00;102992.94;6198434;28;20069;-74
2022/11/12 08:30:37;;;;;;;5.60;2.40;;;;;;;3.26;100.00;102999.03;6198023;28;20081;-73
2022/11/12 08:33:39;;;;;;;4.80;2.38;;;;;;;3.29;100.00;102993.00;6198709;28;20057;-73
2022/11/12 08:36:41;;;;;;;3.67;2.47;;;;;;;3.31;100.00;103006.88;6198241;28;20502;-74
2022/11/12 08:39:42;;;;;;;3.65;2.63;;;;;;;3.36;100.00;102996.53;6198130;28;20046;-75
2022/11/12 08:42:45;;;;;;;6.00;2.90;;;;;;;3.38;100.00;102990.53;6198016;28;20395;-73
2022/11/12 08:45:48;;;;;;;8.30;3.63;;;;;;;3.43;100.00;102995.78;6197699;28;20050;-74
2022/11/12 08:48:50;;;;;;;8.25;3.65;;;;;;;3.41;100.00;103007.91;6198313;28;20050;-74
2022/11/12 08:51:51;;;;;;;7.80;3.00;;;;;;;3.48;100.00;103014.91;6197298;28;20437;-74
2022/11/12 08:54:53;;;;;;;4.35;3.15;;;;;;;3.53;100.00;103011.50;6197719;28;20061;-74
2022/11/12 08:57:58;;;;;;;7.30;3.47;;;;;;;3.55;100.00;102996.81;6198182;28;20050;-73
2022/11/12 09:01:04;;;;;;;6.65;3.00;;;;;;;3.54;100.00;103004.56;6197828;28;20062;-74
2022/11/12 09:04:06;;;;;;;6.40;3.03;;;;;;;3.58;100.00;103006.34;6197602;28;20490;-73
2022/11/12 09:07:07;;;;;;;9.50;3.40;;;;;;;3.64;100.00;103009.06;6198006;28;20058;-74
2022/11/12 09:10:09;;;;;;;7.93;3.30;;;;;;;3.71;100.00;103004.78;6197439;28;20046;-73
2022/11/12 09:13:12;;;;;;;7.93;3.15;;;;;;;3.76;100.00;103000.50;6197891;28;20050;-74
2022/11/12 09:16:14;;;;;;;5.90;2.78;;;;;;;3.81;100.00;102997.13;6195389;28;20043;-73
2022/11/12 09:19:15;;;;;;;6.70;3.33;;;;;;;3.87;100.00;103001.50;6210484;28;20084;-74
2022/11/12 09:22:17;;;;;;;6.80;2.95;;;;;;;3.92;100.00;102999.81;6208309;28;20065;-73
2022/11/12 09:25:18;;;;;;;9.38;3.80;;;;;;;4.01;100.00;102993.84;6218638;28;20061;-74
2022/11/12 09:28:21;;;;;;;5.90;2.35;;;;;;;4.11;100.00;102989.59;6221973;28;20049;-75
2022/11/12 09:31:24;;;;;;;11.88;3.83;;;;;;;4.15;100.00;102992.25;6221336;28;20521;-73
2022/11/12 09:34:25;;;;;;;8.65;3.10;;;;;;;4.22;100.00;102991.44;6221667;28;20057;-73
2022/11/12 09:37:27;;;;;;;5.72;2.70;;;;;;;4.27;100.00;102987.16;6222621;28;20050;-73
2022/11/12 09:40:41;;;;;;;11.73;4.10;;;;;;;4.33;100.00;102997.63;6226438;28;20050;-74
2022/11/12 09:43:48;;;;;;;9.60;3.80;;;;;;;4.44;100.00;103002.03;6225970;28;20102;-74
2022/11/12 09:46:53;;;;;;;11.63;3.90;;;;;;;4.50;100.00;102996.91;6226557;28;20580;-73
2022/11/12 09:50:01;;;;;;;7.95;3.00;;;;;;;4.56;100.00;103002.16;6226128;28;20050;-73
2022/11/12 09:53:08;;;;;;;11.65;3.42;;;;;;;4.63;100.00;102997.84;6187887;28;20058;-74
2022/11/12 09:56:13;;;;;;;7.63;3.53;;;;;;;4.68;100.00;102999.66;6208456;28;20054;-74
2022/11/12 09:59:16;;;;;;;7.63;3.60;;;;;;;4.72;100.00;103005.72;6202099;28;20047;-73
2022/11/12 10:02:27;;;;;;;10.63;3.85;;;;;;;4.76;100.00;103010.09;6201605;28;20548;-73
2022/11/12 10:05:33;;;;;;;11.65;4.40;;;;;;;4.86;100.00;103008.44;6201645;28;20054;-73
2022/11/12 10:08:43;;;;;;;9.38;4.40;;;;;;;4.95;100.00;103004.19;6210429;28;20065;-74
2022/11/12 10:19:32;;;;;;;10.93;4.32;;;;;;;5.33;100.00;103004.38;6179999;28;20417;-73
2022/11/12 10:22:46;;;;;;;8.98;3.13;;;;;;;5.46;100.00;103010.53;6207754;28;20489;-75
2022/11/12 10:25:50;;;;;;;8.40;4.10;;;;;;;5.64;100.00;103008.84;6204756;28;20246;-74
2022/11/12 10:28:59;;;;;;;8.52;4.00;;;;;;;5.84;100.00;103010.66;6213568;28;20533;-75
2022/11/12 10:32:02;;;;;;;14.87;5.43;;;;;;;6.06;100.00;103014.22;6216872;28;20117;-75
2022/11/12 10:35:04;;;;;;;13.45;4.03;;;;;;;6.21;100.00;103012.50;6217578;28;20046;-75
2022/11/12 10:38:11;;;;;;;10.55;4.85;;;;;;;6.45;100.00;103020.38;6220846;28;20050;-75
2022/11/12 10:41:22;;;;;;;11.88;4.78;;;;;;;6.73;100.00;103013.38;6225255;28;20054;-74
2022/11/12 10:44:26;;;;;;;8.73;3.83;;;;;;;6.96;100.00;103018.59;6224903;28;20057;-74
2022/11/12 10:47:32;;;;;;;9.38;4.18;;;;;;;7.15;100.00;103008.94;6225112;28;20045;-74
2022/11/12 10:50:39;;;;;;;11.05;4.15;;;;;;;7.28;100.00;103005.44;6218498;28;20506;-74
2022/11/12 10:53:41;;;;;;;8.50;3.65;;;;;;;7.51;100.00;103007.94;6201057;28;20062;-78
2022/11/12 10:56:42;;;;;;;8.50;4.57;;;;;;;7.74;100.00;103000.00;6197807;28;20061;-75
2022/11/12 10:59:44;;;;;;;9.75;4.90;;;;;;;7.97;100.00;102997.25;6194892;28;20050;-77
2022/11/12 11:02:52;;;;;;;12.00;5.03;;;;;;;8.30;100.00;102992.63;6215600;28;20509;-75
2022/11/12 11:05:56;;;;;;;21.17;6.22;;;;;;;8.71;100.00;102978.34;6209053;28;20046;-74
2022/11/12 11:09:14;;;;;;;10.05;4.40;;;;;;;9.16;100.00;102979.59;6200375;28;20058;-74
2022/11/12 11:12:23;;;;;;;9.38;4.70;;;;;;;9.51;100.00;102980.94;6204831;28;20038;-75
2022/11/12 11:15:25;;;;;;;8.43;3.70;;;;;;;9.69;100.00;102975.44;6205676;28;20395;-74
2022/11/12 11:18:29;;;;;;;7.95;3.80;;;;;;;9.52;100.00;102966.94;6200429;28;20072;-75
2022/11/12 11:22:08;;;;;;;8.23;3.92;;;;;;;9.19;100.00;102973.47;6199675;28;20046;-75
2022/11/12 11:25:18;;;;;;;;;;;;;;;9.03;100.00;102957.88;6149094;29;20054;-75
2022/11/12 11:28:33;;;;;;;11.20;4.57;;;;;;;9.07;100.00;102954.34;6156989;28;19930;-75
2022/11/12 11:31:44;;;;;;;8.57;4.15;;;;;;;9.07;100.00;102956.09;6205298;28;20518;-75
2022/11/12 11:35:01;;;;;;;4.80;3.13;;;;;;;9.00;100.00;102955.31;6198324;28;20725;-74
2022/11/12 11:38:15;;;;;;;8.20;4.05;;;;;;;9.03;100.00;102957.03;6199554;28;20518;-75
2022/11/12 11:41:29;;;;;;;11.23;3.55;;;;;;;9.07;100.00;102956.09;6178891;28;20517;-74
2022/11/12 11:44:41;;;;;;;7.90;3.85;;;;;;;9.08;100.00;102956.13;6187257;28;20149;-75
2022/11/12 11:47:49;;;;;;;8.68;4.28;;;;;;;9.11;100.00;102945.56;6199377;28;20057;-74
2022/11/12 11:50:59;;;;;;;8.50;3.72;;;;;;;9.27;100.00;102942.78;6198656;28;20042;-75
2022/11/12 11:54:13;;;;;;;7.53;4.13;;;;;;;9.36;100.00;102947.91;6199155;28;20600;-75
2022/11/12 11:57:19;;;;;;;7.07;3.60;;;;;;;9.34;100.00;102945.28;6199050;28;20057;-75
2022/11/12 12:00:22;;;;;;;9.80;3.42;;;;;;;9.30;100.00;102938.31;6198643;28;20046;-74
2022/11/12 12:03:29;;;;;;;11.48;3.67;;;;;;;9.31;100.00;102933.94;6199020;28;20046;-74
2022/11/12 12:06:41;;;;;;;6.68;3.30;;;;;;;9.28;100.00;102934.00;6174648;28;20076;-76
2022/11/12 12:09:51;;;;;;;6.13;2.60;;;;;;;9.25;100.00;102923.53;6174720;28;20050;-75
2022/11/12 12:13:04;;;;;;;8.00;4.10;;;;;;;9.15;100.00;102923.66;6175002;28;20054;-75
2022/11/12 12:16:19;;;;;;;6.38;3.70;;;;;;;9.18;100.00;102922.75;6174402;28;20050;-75
2022/11/12 12:19:40;;;;;;;8.00;3.60;;;;;;;9.25;100.00;102916.53;6174536;28;20054;-75
2022/11/12 12:22:46;;;;;;;11.45;2.75;;;;;;;9.24;100.00;102912.19;6174689;28;20502;-75
2022/11/12 12:25:50;;;;;;;6.00;3.20;;;;;;;9.28;100.00;102918.25;6174247;28;20061;-74
2022/11/12 12:28:56;;;;;;;7.20;3.10;;;;;;;9.34;100.00;102919.03;6174264;28;20058;-75
2022/11/12 12:32:02;;;;;;;33.35;10.63;;;;;;;9.43;100.00;102918.03;6174083;28;20054;-75
2022/11/12 12:35:15;;;;;;;13.27;6.10;;;;;;;9.52;100.00;102917.91;6173746;28;20050;-74
2022/11/12 12:38:25;;;;;;;10.90;4.47;;;;;;;9.54;100.00;102918.78;6174437;28;20058;-75
2022/11/12 12:41:31;;;;;;;6.93;2.92;;;;;;;9.54;100.00;102913.53;6173837;28;20061;-75
2022/11/12 12:45:00;;;;;;;4.15;2.40;;;;;;;9.58;100.00;102909.97;6173916;28;20055;-75
2022/11/12 12:48:05;;;;;;;6.23;2.67;;;;;;;9.66;100.00;102907.22;6174233;28;20067;-74
2022/11/12 12:51:07;;;;;;;4.68;2.25;;;;;;;9.70;100.00;102900.16;6173408;28;20053;-75
2022/11/12 12:54:42;;;;;;;5.32;2.88;;;;;;;9.74;100.00;102905.34;6173934;28;20047;-75
2022/11/12 12:57:45;;;;;;;2.92;2.15;;;;;;;9.80;100.00;102892.13;6173799;28;20047;-75
2022/11/12 13:00:48;;;;;;;3.60;2.20;;;;;;;9.89;100.00;102897.22;6173770;28;20054;-75
2022/11/12 13:03:57;;;;;;;3.78;2.28;;;;;;;9.95;100.00;102890.13;6175718;28;20051;-75
2022/11/12 13:06:58;;;;;;;4.17;2.70;;;;;;;9.96;100.00;102892.75;6198030;28;20057;-75
2022/11/12 13:10:33;;;;;;;8.20;3.25;;;;;;;9.93;100.00;102892.81;6197357;28;20061;-75
2022/11/12 13:13:38;;;;;;;5.63;2.78;;;;;;;9.92;100.00;102891.06;6197138;28;20521;-75
2022/11/12 13:16:59;;;;;;;3.72;2.42;;;;;;;9.95;100.00;102885.78;6197046;28;20061;-75
2022/11/12 13:20:36;;;;;;;5.93;3.03;;;;;;;9.85;100.00;102882.41;6260878;23;20127;-74
2022/11/12 13:27:01;;;;;;;4.70;2.75;;;;;;;9.78;100.00;102886.03;6245082;28;20092;-76
2022/11/12 13:30:07;;;;;;;3.10;2.28;;;;;;;9.75;100.00;102885.22;6244269;28;20445;-75
2022/11/12 13:33:24;;;;;;;5.68;2.53;;;;;;;9.65;100.00;102889.75;6239204;28;20425;-75
2022/11/12 13:36:28;;;;;;;5.43;2.40;;;;;;;9.57;100.00;102895.09;6258084;28;20060;-75
2022/11/12 13:39:35;;;;;;;3.38;2.10;;;;;;;9.49;100.00;102893.47;6252998;28;20044;-76
2022/11/12 13:42:48;;;;;;;3.40;2.03;;;;;;;9.46;100.00;102888.28;6261762;28;20055;-75
2022/11/12 13:45:54;;;;;;;4.35;2.50;;;;;;;9.41;100.00;102885.72;6269585;28;20674;-75
2022/11/12 13:49:02;;;;;;;4.22;2.50;;;;;;;9.37;100.00;102892.75;6269675;28;20056;-76
2022/11/12 13:52:05;;;;;;;6.88;2.20;;;;;;;9.33;100.00;102891.06;6268855;28;20635;-75
2022/11/12 13:55:14;;;;;;;4.90;2.40;;;;;;;9.30;100.00;102893.72;6269960;28;20049;-75
2022/11/12 13:58:19;;;;;;;4.65;2.42;;;;;;;9.27;100.00;102892.94;6270602;28;20064;-76
2022/11/12 14:01:24;;;;;;;3.38;2.33;;;;;;;9.24;100.00;102887.72;6270991;28;20087;-75
2022/11/12 14:04:26;;;;;;;5.45;2.42;;;;;;;9.20;100.00;102888.63;6270764;28;20049;-75
2022/11/12 14:07:44;;;;;;;6.22;2.45;;;;;;;9.17;100.00;102886.03;6270955;28;20519;-75
2022/11/12 14:11:02;;;;;;;4.82;2.80;;;;;;;9.15;100.00;102879.06;6270266;28;20045;-76
2022/11/12 14:14:12;;;;;;;7.10;2.47;;;;;;;9.10;100.00;102880.88;6270543;28;20053;-75
2022/11/12 14:17:30;;;;;;;4.70;2.30;;;;;;;9.05;100.00;102873.97;6270629;28;20060;-76
2022/11/12 14:20:35;;;;;;;5.53;1.97;;;;;;;9.00;100.00;102879.28;6270227;28;20056;-75
2022/11/12 14:23:38;;;;;;;5.35;2.63;;;;;;;8.97;100.00;102886.31;6271501;28;20056;-76
2022/11/12 14:26:41;;;;;;;3.90;2.38;;;;;;;8.93;100.00;102881.97;6274766;28;20583;-75
2022/11/12 14:29:42;;;;;;;6.25;2.60;;;;;;;8.87;100.00;102875.94;6274661;28;20064;-75
2022/11/12 14:32:46;;;;;;;5.97;3.50;;;;;;;8.84;100.00;102881.19;6274960;28;20048;-76
2022/11/12 14:35:49;;;;;;;6.05;2.50;;;;;;;8.80;100.00;102884.72;6274414;28;20044;-75
2022/11/12 14:38:53;;;;;;;7.30;3.10;;;;;;;8.77;100.00;102878.69;6274880;28;20056;-75
2022/11/12 14:41:57;;;;;;;3.58;2.40;;;;;;;8.73;100.00;102871.75;6273862;28;20416;-75
2022/11/12 14:44:58;;;;;;;3.88;2.45;;;;;;;8.69;100.00;102885.75;6274432;28;20056;-75
2022/11/12 14:48:01;;;;;;;5.68;3.03;;;;;;;8.61;100.00;102888.44;6274687;28;20053;-76